Mount Saint Francis, Indiana
Current Conditions -  °F | °C
As of 2:56 PM on Monday 24 Nov 2014 (Local Time) from KSDF Reporting Station
Overcast Overcast  
Wind Chill: 41°   Ceiling: 3900
Heat Index: 48°   Visibility: 10mi
Dew Point: 34°   Wind: 21mph
Humidity: 58%   Direction: 250°WSW
Pressure: 29.74"   Gusts: 31mph
Location:  38.32°N, 85.91°W
Report Text: KSDF 241956Z 25018G27KT 10SM OVC039 09/01 A2974 RMK AO2 PK WND 25028/1920 SLP072 T00890011
Loading
Personal Weather Stations






























Interactive Weather Map New forecast layout! Learn more

10-Day Weather Forecast

Advertisements
Track Severe Weather on mobile